createdAt,value
2023-03-18T00:01:45.107Z,26.38
2023-03-18T00:04:12.548Z,20.05
2023-03-18T00:06:38.937Z,20.40
2023-03-18T00:09:05.407Z,23.13
2023-03-18T00:11:31.760Z,24.20
2023-03-18T00:13:59.246Z,34.33
2023-03-18T00:16:27.034Z,42.08
2023-03-18T00:18:53.693Z,36.65
2023-03-18T00:21:20.285Z,28.17
2023-03-18T00:23:48.685Z,29.45
2023-03-18T00:26:15.708Z,25.25
2023-03-18T00:28:42.125Z,30.58
2023-03-18T00:31:10.779Z,30.48
2023-03-18T00:33:39.916Z,38.10
2023-03-18T00:36:09.924Z,30.83
2023-03-18T00:38:36.432Z,36.10
2023-03-18T00:41:12.133Z,34.72
2023-03-18T00:43:49.253Z,29.10
2023-03-18T00:46:17.696Z,29.02
2023-03-18T00:48:45.229Z,43.53
2023-03-18T00:51:14.018Z,57.17
2023-03-18T00:53:42.530Z,46.72
2023-03-18T00:56:09.002Z,36.88
2023-03-18T00:58:37.056Z,27.75
2023-03-18T01:01:05.848Z,36.92
2023-03-18T01:03:34.431Z,24.73
2023-03-18T01:06:02.372Z,20.08
2023-03-18T01:08:30.347Z,21.60
2023-03-18T01:10:58.016Z,21.90
2023-03-18T01:13:25.772Z,20.15
2023-03-18T01:15:53.165Z,20.63
2023-03-18T01:18:20.604Z,15.25
2023-03-18T01:20:47.065Z,17.00
2023-03-18T01:23:14.340Z,24.15
2023-03-18T01:25:44.506Z,20.70
2023-03-18T01:30:40.861Z,14.35
2023-03-18T01:33:07.630Z,13.55
2023-03-18T01:35:35.971Z,13.38
2023-03-18T01:38:05.337Z,16.65
2023-03-18T01:40:36.978Z,17.30
2023-03-18T01:43:14.927Z,15.82
2023-03-18T01:45:47.444Z,18.63
2023-03-18T01:48:17.406Z,12.65
2023-03-18T01:50:47.515Z,14.07
2023-03-18T01:53:17.637Z,16.52
2023-03-18T01:55:45.689Z,9.52
2023-03-18T01:58:26.944Z,11.63
2023-03-18T02:01:09.509Z,11.30
2023-03-18T02:03:41.336Z,11.98
2023-03-18T02:06:08.316Z,13.57
2023-03-18T02:08:35.774Z,14.38
2023-03-18T02:11:03.222Z,12.00
2023-03-18T02:13:31.690Z,14.63
2023-03-18T02:16:05.060Z,13.25
2023-03-18T02:18:39.110Z,17.10
2023-03-18T02:24:06.236Z,11.32
2023-03-18T02:26:54.783Z,11.45
2023-03-18T02:29:31.102Z,11.20
2023-03-18T02:32:06.949Z,16.15
2023-03-18T02:34:34.812Z,15.20
2023-03-18T02:37:01.862Z,14.75
2023-03-18T02:39:31.004Z,16.23
2023-03-18T02:41:58.410Z,16.52
2023-03-18T02:44:25.402Z,10.85
2023-03-18T02:47:22.285Z,14.48
2023-03-18T02:49:49.657Z,11.20
2023-03-18T02:52:16.160Z,10.45
2023-03-18T02:54:42.557Z,14.50
2023-03-18T02:57:09.291Z,14.05
2023-03-18T02:59:38.142Z,14.13
2023-03-18T03:02:04.882Z,11.55
2023-03-18T03:04:31.868Z,15.55
2023-03-18T03:07:01.326Z,20.10
2023-03-18T03:09:56.716Z,17.40
2023-03-18T03:12:24.538Z,14.60
2023-03-18T03:14:55.627Z,14.85
2023-03-18T03:17:22.603Z,18.00
2023-03-18T03:19:50.561Z,21.83
2023-03-18T03:22:19.927Z,14.98
2023-03-18T03:24:47.449Z,14.25
2023-03-18T03:27:14.234Z,19.05
2023-03-18T03:29:40.640Z,12.25
2023-03-18T03:32:07.037Z,17.02
2023-03-18T03:34:34.855Z,12.35
2023-03-18T03:37:01.180Z,17.75
2023-03-18T03:39:27.931Z,20.33
2023-03-18T03:41:54.262Z,20.58
2023-03-18T03:44:20.873Z,22.00
2023-03-18T03:46:49.189Z,22.17
2023-03-18T03:49:15.668Z,20.48
2023-03-18T03:51:42.376Z,23.42
2023-03-18T03:54:08.733Z,20.92
2023-03-18T03:56:35.029Z,19.40
2023-03-18T03:59:01.353Z,19.73
2023-03-18T04:01:46.192Z,17.23
2023-03-18T04:04:13.261Z,12.32
2023-03-18T04:06:39.994Z,15.23
2023-03-18T04:09:06.338Z,14.63
2023-03-18T04:11:32.662Z,17.13
2023-03-18T04:13:58.970Z,18.17
2023-03-18T04:16:26.682Z,19.85
2023-03-18T04:18:53.032Z,14.68
2023-03-18T04:21:23.175Z,16.35
2023-03-18T04:23:53.157Z,16.80
2023-03-18T04:26:20.465Z,18.42
2023-03-18T04:28:47.720Z,16.33
2023-03-18T04:31:16.638Z,16.98
2023-03-18T04:33:44.637Z,14.98
2023-03-18T04:36:11.412Z,17.13
2023-03-18T04:38:38.188Z,16.65
2023-03-18T04:41:06.649Z,12.05
2023-03-18T04:43:33.031Z,14.27
2023-03-18T04:45:59.979Z,18.23
2023-03-18T04:48:28.349Z,13.30
2023-03-18T04:50:57.096Z,11.88
2023-03-18T04:55:55.210Z,12.65
2023-03-18T04:58:27.172Z,16.10
2023-03-18T05:01:14.058Z,15.27
2023-03-18T05:03:41.461Z,20.90
2023-03-18T05:06:09.426Z,22.05
2023-03-18T05:08:51.355Z,17.15
2023-03-18T05:11:18.742Z,18.35
2023-03-18T05:13:45.408Z,15.80
2023-03-18T05:16:13.860Z,14.75
2023-03-18T05:18:41.058Z,17.63
2023-03-18T05:21:09.994Z,16.10
2023-03-18T05:23:38.665Z,15.80
2023-03-18T05:26:05.689Z,17.27
2023-03-18T05:28:33.976Z,17.08
2023-03-18T05:31:14.757Z,19.75
2023-03-18T05:33:42.455Z,27.02
2023-03-18T05:36:10.283Z,20.60
2023-03-18T05:38:44.390Z,18.83
2023-03-18T05:41:11.233Z,14.43
2023-03-18T05:43:40.798Z,15.27
2023-03-18T05:46:07.294Z,14.68
2023-03-18T05:48:59.985Z,20.73
2023-03-18T05:51:32.157Z,17.52
2023-03-18T05:53:59.983Z,22.55
2023-03-18T05:56:31.328Z,22.83
2023-03-18T05:59:00.365Z,18.38
2023-03-18T06:01:38.776Z,17.95
2023-03-18T06:04:08.828Z,17.83
2023-03-18T06:06:39.299Z,24.75
2023-03-18T06:09:07.075Z,22.05
2023-03-18T06:11:33.846Z,20.83
2023-03-18T06:14:00.248Z,27.88
2023-03-18T06:16:28.100Z,27.02
2023-03-18T06:18:55.539Z,25.95
2023-03-18T06:21:22.692Z,22.20
2023-03-18T06:23:49.562Z,20.45
2023-03-18T06:26:15.991Z,20.80
2023-03-18T06:28:49.291Z,19.50
2023-03-18T06:31:17.542Z,14.80
2023-03-18T06:33:44.316Z,17.83
2023-03-18T06:36:16.370Z,16.77
2023-03-18T06:38:47.053Z,12.00
2023-03-18T06:41:14.595Z,17.52
2023-03-18T06:43:52.025Z,26.42
2023-03-18T06:46:18.785Z,15.80
2023-03-18T06:48:45.881Z,14.82
2023-03-18T06:51:16.423Z,10.93
2023-03-18T06:53:43.417Z,9.88
2023-03-18T06:56:13.159Z,12.77
2023-03-18T07:01:19.366Z,14.73
2023-03-18T07:03:46.720Z,13.05
2023-03-18T07:06:13.927Z,11.88
2023-03-18T07:08:40.486Z,13.60
2023-03-18T07:11:07.349Z,9.65
2023-03-18T07:13:36.566Z,10.77
2023-03-18T07:16:06.386Z,10.95
2023-03-18T07:18:32.863Z,13.90
2023-03-18T07:20:59.613Z,11.05
2023-03-18T07:23:27.050Z,8.90
2023-03-18T07:25:57.334Z,8.83
2023-03-18T07:28:23.667Z,8.63
2023-03-18T07:30:53.019Z,16.65
2023-03-18T07:33:20.902Z,12.57
2023-03-18T07:35:48.274Z,15.20
2023-03-18T07:38:14.643Z,14.18
2023-03-18T07:40:41.162Z,13.65
2023-03-18T07:43:07.527Z,16.13
2023-03-18T07:45:34.553Z,15.30
2023-03-18T07:48:00.968Z,15.93
2023-03-18T07:50:27.836Z,17.45
2023-03-18T07:52:54.226Z,15.73
2023-03-18T07:55:20.713Z,15.50
2023-03-18T07:57:47.278Z,15.25
2023-03-18T08:00:14.250Z,14.32
2023-03-18T08:02:42.136Z,11.75
2023-03-18T08:05:09.134Z,10.23
2023-03-18T08:07:36.251Z,11.93
2023-03-18T08:10:03.284Z,11.35
2023-03-18T08:12:41.593Z,10.48
2023-03-18T08:15:17.658Z,10.18
2023-03-18T08:17:47.187Z,8.50
2023-03-18T08:20:13.807Z,10.55
2023-03-18T08:22:40.119Z,9.23
2023-03-18T08:25:07.220Z,10.65
2023-03-18T08:27:33.544Z,10.50
2023-03-18T08:30:02.971Z,10.82
2023-03-18T08:32:30.519Z,8.98
2023-03-18T08:34:56.884Z,9.98
2023-03-18T08:37:23.169Z,9.18
2023-03-18T08:39:49.476Z,9.73
2023-03-18T08:42:16.743Z,11.70
2023-03-18T08:44:43.451Z,11.45
2023-03-18T08:47:09.813Z,9.07
2023-03-18T08:49:36.924Z,7.68
2023-03-18T08:52:03.722Z,9.05
2023-03-18T08:54:30.098Z,8.85
2023-03-18T08:56:56.712Z,8.27
2023-03-18T08:59:23.098Z,9.23
2023-03-18T09:01:49.412Z,9.68
2023-03-18T09:04:15.929Z,8.25
2023-03-18T09:06:42.935Z,7.93
2023-03-18T09:09:09.497Z,9.38
2023-03-18T09:11:36.289Z,9.05
2023-03-18T09:14:02.617Z,10.55
2023-03-18T09:16:29.568Z,10.65
2023-03-18T09:18:56.061Z,10.15
2023-03-18T09:21:22.431Z,10.13
2023-03-18T09:23:50.249Z,6.85
2023-03-18T09:26:16.981Z,7.63
2023-03-18T09:28:43.358Z,8.40
2023-03-18T09:31:09.680Z,10.68
2023-03-18T09:33:37.033Z,7.18
2023-03-18T09:36:04.286Z,9.27
2023-03-18T09:38:32.321Z,9.57
2023-03-18T09:41:22.534Z,12.35
2023-03-18T09:43:58.437Z,11.40
2023-03-18T09:46:33.249Z,7.30
2023-03-18T09:49:16.540Z,6.97
2023-03-18T09:52:13.676Z,10.13
2023-03-18T09:54:57.439Z,8.88
2023-03-18T09:57:33.148Z,7.32
2023-03-18T10:00:17.374Z,7.13
2023-03-18T10:03:08.554Z,7.90
2023-03-18T10:05:43.880Z,8.15
2023-03-18T10:08:22.800Z,6.53
2023-03-18T10:10:49.196Z,7.40
2023-03-18T10:13:42.615Z,7.72
2023-03-18T10:16:15.271Z,7.80
2023-03-18T10:18:43.327Z,9.25
2023-03-18T10:21:28.255Z,17.27
2023-03-18T10:24:16.887Z,15.10
2023-03-18T10:26:50.183Z,13.00
2023-03-18T10:29:40.534Z,9.68
2023-03-18T10:32:46.513Z,11.20
2023-03-18T10:36:00.601Z,7.43
2023-03-18T10:38:34.090Z,8.45
2023-03-18T10:41:01.229Z,13.60
2023-03-18T10:43:30.863Z,11.52
2023-03-18T10:46:10.755Z,14.65
2023-03-18T10:48:46.043Z,11.15
2023-03-18T10:51:27.286Z,7.90
2023-03-18T10:56:20.880Z,5.18
2023-03-18T10:58:47.582Z,11.98
2023-03-18T11:01:19.054Z,6.70
2023-03-18T11:03:54.455Z,5.20
2023-03-18T11:06:35.649Z,4.75
2023-03-18T11:11:49.790Z,3.75
2023-03-18T11:14:20.860Z,5.97
2023-03-18T11:19:30.190Z,4.80
2023-03-18T11:22:11.663Z,8.43
2023-03-18T11:24:42.135Z,5.68
2023-03-18T11:27:14.383Z,6.70
2023-03-18T11:29:46.619Z,3.28
2023-03-18T11:32:34.012Z,5.10
2023-03-18T11:35:02.456Z,9.85
2023-03-18T11:37:40.623Z,5.22
2023-03-18T11:40:18.235Z,6.40
2023-03-18T11:42:47.448Z,6.70
2023-03-18T11:45:26.439Z,13.52
2023-03-18T11:47:54.118Z,8.70
2023-03-18T11:50:25.454Z,4.82
2023-03-18T11:53:09.125Z,4.72
2023-03-18T11:55:52.694Z,5.43
2023-03-18T11:58:54.412Z,7.57
2023-03-18T12:01:35.551Z,5.97
2023-03-18T12:06:59.650Z,3.38
2023-03-18T12:09:57.468Z,6.57
2023-03-18T12:12:59.481Z,7.45
2023-03-18T12:15:55.792Z,4.05
2023-03-18T12:19:13.197Z,5.05
2023-03-18T12:21:54.959Z,5.45
2023-03-18T12:24:39.378Z,7.07
2023-03-18T12:27:20.151Z,6.85
2023-03-18T12:30:14.328Z,6.88
2023-03-18T12:33:10.519Z,8.10
2023-03-18T12:36:00.417Z,4.63
2023-03-18T12:38:41.866Z,6.55
2023-03-18T12:41:21.412Z,10.48
2023-03-18T12:44:07.768Z,7.82
2023-03-18T12:47:01.339Z,7.68
2023-03-18T12:49:41.473Z,7.63
2023-03-18T12:52:44.977Z,6.38
2023-03-18T12:55:21.631Z,5.97
2023-03-18T12:58:07.447Z,4.88
2023-03-18T13:00:54.188Z,3.22
2023-03-18T13:03:31.289Z,3.78
2023-03-18T13:06:29.099Z,5.82
2023-03-18T13:09:06.186Z,2.97
2023-03-18T13:11:53.663Z,3.90
2023-03-18T13:14:58.200Z,6.47
2023-03-18T13:17:30.445Z,5.00
2023-03-18T13:20:01.730Z,6.93
2023-03-18T13:22:43.301Z,4.30
2023-03-18T13:25:28.914Z,4.00
2023-03-18T13:28:11.296Z,10.75
2023-03-18T13:30:54.141Z,6.82
2023-03-18T13:33:45.393Z,9.07
2023-03-18T13:39:04.547Z,3.65
2023-03-18T13:42:04.860Z,9.13
2023-03-18T13:44:43.806Z,6.25
2023-03-18T13:47:19.405Z,4.32
2023-03-18T13:49:46.665Z,4.25
2023-03-18T13:52:44.913Z,3.80
2023-03-18T13:55:29.310Z,5.07
2023-03-18T13:58:09.119Z,3.78
2023-03-18T14:00:40.311Z,4.18
2023-03-18T14:03:27.210Z,3.88
2023-03-18T14:06:08.650Z,10.25
2023-03-18T14:08:38.122Z,5.05
2023-03-18T14:11:16.633Z,4.43
2023-03-18T14:13:44.793Z,6.13
2023-03-18T14:16:14.792Z,7.03
2023-03-18T14:18:41.299Z,6.78
2023-03-18T14:21:23.680Z,8.05
2023-03-18T14:24:17.502Z,3.58
2023-03-18T14:26:49.215Z,3.95
2023-03-18T14:29:24.782Z,5.10
2023-03-18T14:32:00.364Z,4.82
2023-03-18T14:34:34.101Z,7.70
2023-03-18T14:37:20.266Z,8.32
2023-03-18T14:39:52.534Z,7.28
2023-03-18T14:42:29.174Z,6.78
2023-03-18T14:45:04.332Z,4.60
2023-03-18T14:47:41.714Z,7.88
2023-03-18T14:50:32.672Z,3.75
2023-03-18T14:53:09.882Z,5.65
2023-03-18T14:55:37.876Z,4.43
2023-03-18T14:58:04.721Z,6.65
2023-03-18T15:00:35.337Z,6.22
2023-03-18T15:03:09.139Z,6.47
2023-03-18T15:05:38.950Z,7.43
2023-03-18T15:08:19.518Z,5.22
2023-03-18T15:10:51.448Z,4.95
2023-03-18T15:13:20.280Z,4.28
2023-03-18T15:15:47.030Z,5.70
2023-03-18T15:18:20.525Z,4.70
2023-03-18T15:20:51.450Z,8.57
2023-03-18T15:23:26.879Z,5.40
2023-03-18T15:25:53.954Z,5.68
2023-03-18T15:28:23.557Z,5.60
2023-03-18T15:30:54.154Z,4.10
2023-03-18T15:33:23.508Z,7.22
2023-03-18T15:36:16.441Z,4.63
2023-03-18T15:38:50.402Z,8.63
2023-03-18T15:41:21.453Z,4.60
2023-03-18T15:46:27.139Z,4.22
2023-03-18T15:48:55.732Z,5.93
2023-03-18T15:51:42.044Z,3.53
2023-03-18T15:54:17.918Z,4.75
2023-03-18T15:56:47.146Z,9.55
2023-03-18T15:59:39.911Z,8.38
2023-03-18T16:02:12.607Z,4.32
2023-03-18T16:04:38.941Z,4.70
2023-03-18T16:07:16.085Z,6.55
2023-03-18T16:09:42.423Z,7.75
2023-03-18T16:12:16.713Z,5.18
2023-03-18T16:14:45.842Z,6.47
2023-03-18T16:17:13.053Z,4.18
2023-03-18T16:19:39.832Z,4.65
2023-03-18T16:22:06.266Z,3.88
2023-03-18T16:24:32.606Z,4.78
2023-03-18T16:26:59.245Z,3.25
2023-03-18T16:29:31.799Z,4.53
2023-03-18T16:31:58.946Z,5.60
2023-03-18T16:34:25.799Z,6.95
2023-03-18T16:36:53.392Z,3.83
2023-03-18T16:39:24.220Z,5.55
2023-03-18T16:41:51.034Z,5.28
2023-03-18T16:44:23.519Z,3.85
2023-03-18T16:46:53.621Z,5.40
2023-03-18T16:49:24.898Z,6.72
2023-03-18T16:51:51.661Z,4.95
2023-03-18T16:54:34.320Z,2.92
2023-03-18T16:57:04.241Z,3.33
2023-03-18T16:59:33.808Z,7.20
2023-03-18T17:02:00.815Z,5.25
2023-03-18T17:04:32.981Z,4.97
2023-03-18T17:07:01.710Z,3.72
2023-03-18T17:09:28.148Z,4.95
2023-03-18T17:12:00.829Z,7.60
2023-03-18T17:14:31.764Z,5.18
2023-03-18T17:17:01.317Z,5.22
2023-03-18T17:19:28.357Z,6.82
2023-03-18T17:21:55.373Z,9.20
2023-03-18T17:24:22.793Z,3.88
2023-03-18T17:26:51.434Z,12.13
2023-03-18T17:29:27.154Z,9.98
2023-03-18T17:31:54.631Z,10.75
2023-03-18T17:34:21.249Z,7.85
2023-03-18T17:36:48.351Z,9.02
2023-03-18T17:39:15.027Z,7.60
2023-03-18T17:41:41.806Z,7.95
2023-03-18T17:44:30.124Z,10.55
2023-03-18T17:46:57.450Z,10.40
2023-03-18T17:49:26.910Z,9.90
2023-03-18T17:51:55.373Z,5.45
2023-03-18T17:54:25.152Z,6.95
2023-03-18T17:56:52.732Z,12.02
2023-03-18T17:59:20.261Z,13.65
2023-03-18T18:01:49.324Z,8.82
2023-03-18T18:04:18.431Z,8.95
2023-03-18T18:06:47.929Z,10.70
2023-03-18T18:09:15.291Z,7.40
2023-03-18T18:11:48.399Z,4.93
2023-03-18T18:14:24.994Z,8.48
2023-03-18T18:16:53.615Z,9.77
2023-03-18T18:19:19.988Z,14.05
2023-03-18T18:21:47.053Z,14.25
2023-03-18T18:24:18.605Z,5.28
2023-03-18T18:26:44.939Z,8.27
2023-03-18T18:29:19.318Z,9.52
2023-03-18T18:31:45.828Z,8.68
2023-03-18T18:34:13.071Z,8.60
2023-03-18T18:36:39.734Z,8.13
2023-03-18T18:39:06.289Z,12.57
2023-03-18T18:41:33.468Z,6.03
2023-03-18T18:43:59.870Z,10.65
2023-03-18T18:46:28.716Z,9.57
2023-03-18T18:48:55.165Z,4.80
2023-03-18T18:51:23.252Z,7.35
2023-03-18T18:53:52.309Z,9.18
2023-03-18T18:56:23.450Z,7.00
2023-03-18T19:01:18.304Z,22.33
2023-03-18T19:03:45.142Z,8.85
2023-03-18T19:06:31.928Z,5.78
2023-03-18T19:09:00.672Z,9.50
2023-03-18T19:11:28.086Z,13.27
2023-03-18T19:14:09.230Z,22.38
2023-03-18T19:16:35.766Z,20.60
2023-03-18T19:19:02.872Z,16.98
2023-03-18T19:21:29.194Z,10.98
2023-03-18T19:23:55.531Z,19.48
2023-03-18T19:26:21.908Z,9.80
2023-03-18T19:28:57.516Z,11.05
2023-03-18T19:31:26.972Z,10.55
2023-03-18T19:33:53.849Z,28.13
2023-03-18T19:36:26.903Z,31.33
2023-03-18T19:38:55.177Z,44.05
2023-03-18T19:41:21.853Z,36.50
2023-03-18T19:43:48.690Z,39.72
2023-03-18T19:46:38.423Z,22.80
2023-03-18T19:49:22.437Z,32.42
2023-03-18T19:51:50.068Z,59.25
2023-03-18T19:54:33.894Z,92.43
2023-03-18T19:57:17.185Z,56.35
2023-03-18T19:59:46.767Z,62.33
2023-03-18T20:02:19.904Z,129.25
2023-03-18T20:04:47.726Z,93.57
2023-03-18T20:07:14.124Z,81.78
2023-03-18T20:09:40.455Z,68.78
2023-03-18T20:12:18.931Z,54.40
2023-03-18T20:14:45.547Z,44.67
2023-03-18T20:17:35.796Z,29.80
2023-03-18T20:20:02.173Z,30.17
2023-03-18T20:22:35.610Z,114.57
2023-03-18T20:25:04.872Z,30.48
2023-03-18T20:27:31.644Z,38.58
2023-03-18T20:29:58.153Z,29.58
2023-03-18T20:32:24.739Z,32.60
2023-03-18T20:34:51.241Z,34.25
2023-03-18T20:37:34.900Z,36.40
2023-03-18T20:40:07.267Z,17.15
2023-03-18T20:42:33.671Z,14.30
2023-03-18T20:45:00.308Z,12.05
2023-03-18T20:47:26.642Z,10.88
2023-03-18T20:49:54.716Z,15.55
2023-03-18T20:52:26.515Z,8.65
2023-03-18T20:54:54.175Z,9.52
2023-03-18T20:57:20.809Z,10.90
2023-03-18T20:59:47.330Z,7.05
2023-03-18T21:02:28.079Z,8.93
2023-03-18T21:04:56.007Z,8.88
2023-03-18T21:07:22.824Z,8.07
2023-03-18T21:09:49.172Z,13.88
2023-03-18T21:12:20.542Z,7.18
2023-03-18T21:14:47.412Z,16.88
2023-03-18T21:17:20.835Z,17.92
2023-03-18T21:19:48.448Z,30.90
2023-03-18T21:22:24.722Z,48.30
2023-03-18T21:24:51.083Z,40.47
2023-03-18T21:27:22.174Z,43.33
2023-03-18T21:29:50.902Z,39.75
2023-03-18T21:32:31.519Z,34.05
2023-03-18T21:34:58.289Z,40.35
2023-03-18T21:37:27.079Z,23.23
2023-03-18T21:39:53.708Z,32.00
2023-03-18T21:42:24.877Z,33.47
2023-03-18T21:47:20.055Z,23.77
2023-03-18T21:49:46.956Z,21.00
2023-03-18T21:52:28.915Z,31.17
2023-03-18T21:54:55.861Z,13.50
2023-03-18T21:57:23.781Z,10.38
2023-03-18T21:59:52.063Z,15.75
2023-03-18T22:02:27.384Z,60.00
2023-03-18T22:04:58.346Z,63.78
2023-03-18T22:07:29.722Z,43.03
2023-03-18T22:09:57.048Z,63.63
2023-03-18T22:12:28.892Z,87.57
2023-03-18T22:14:56.069Z,100.82
2023-03-18T22:17:34.141Z,99.63
2023-03-18T22:20:01.673Z,81.18
2023-03-18T22:22:47.347Z,64.90
2023-03-18T22:25:28.215Z,58.50
2023-03-18T22:27:54.571Z,34.55
2023-03-18T22:30:21.406Z,24.00
2023-03-18T22:32:48.210Z,48.08
2023-03-18T22:35:21.073Z,32.92
2023-03-18T22:37:48.485Z,25.65
2023-03-18T22:40:21.565Z,19.98
2023-03-18T22:42:49.282Z,20.83
2023-03-18T22:45:33.446Z,12.07
2023-03-18T22:48:04.160Z,14.85
2023-03-18T22:50:32.241Z,17.27
2023-03-18T22:53:04.648Z,14.85
2023-03-18T22:55:35.667Z,11.10
2023-03-18T22:58:02.636Z,11.00
2023-03-18T23:00:43.738Z,13.98
2023-03-18T23:03:19.852Z,14.60
2023-03-18T23:05:47.973Z,18.23
2023-03-18T23:08:14.928Z,23.90
2023-03-18T23:10:42.643Z,14.55
2023-03-18T23:13:18.401Z,19.13
2023-03-18T23:15:45.454Z,21.17
2023-03-18T23:18:16.046Z,16.00
2023-03-18T23:20:48.651Z,20.02
2023-03-18T23:23:16.112Z,20.17
2023-03-18T23:25:44.056Z,17.80
2023-03-18T23:28:11.081Z,20.23
2023-03-18T23:30:39.982Z,19.50
2023-03-18T23:33:07.212Z,20.23
2023-03-18T23:35:33.847Z,14.65
2023-03-18T23:38:00.514Z,18.42
2023-03-18T23:40:27.197Z,18.80
2023-03-18T23:42:53.540Z,16.00
2023-03-18T23:45:20.018Z,15.48
2023-03-18T23:47:46.586Z,14.25
2023-03-18T23:50:13.232Z,13.98
2023-03-18T23:52:39.582Z,15.02
2023-03-18T23:55:21.368Z,18.05
2023-03-18T23:57:53.524Z,15.80
